Time;durP1;ratioP1;P1;durP2;ratioP2;P2;SDS_P1;SDS_P2;PMS_P1;PMS_P2;Temp;Humidity;BMP_temperature;BMP_pressure;BME280_temperature;BME280_humidity;BME280_pressure;Samples;Min_cycle;Max_cycle;Signal;HPM_P1;HPM_P2
2021/06/17 00:02:05;;;;;;;13.77;6.25;;;;;;;;;;5104229;28;20060;-56
2021/06/17 00:04:32;;;;;;;8.93;5.63;;;;;;;;;;5072042;28;20041;-55
2021/06/17 00:06:58;;;;;;;7.80;5.45;;;;;;;;;;5072009;28;20071;-56
2021/06/17 00:09:25;;;;;;;11.40;5.78;;;;;;;;;;5072049;28;20503;-55
2021/06/17 00:11:51;;;;;;;12.43;5.95;;;;;;;;;;5071681;28;20119;-55
2021/06/17 00:14:18;;;;;;;12.93;6.32;;;;;;;;;;5071565;28;20048;-56
2021/06/17 00:16:44;;;;;;;12.55;6.32;;;;;;;;;;5071565;28;20562;-56
2021/06/17 00:19:11;;;;;;;11.98;6.13;;;;;;;;;;5071520;28;20056;-55
2021/06/17 00:21:37;;;;;;;9.55;6.05;;;;;;;;;;5072494;28;20445;-55
2021/06/17 00:24:04;;;;;;;10.18;5.10;;;;;;;;;;5062645;28;20119;-55
2021/06/17 00:26:30;;;;;;;10.07;6.00;;;;;;;;;;5064684;28;20040;-55
2021/06/17 00:28:56;;;;;;;9.05;5.32;;;;;;;;;;5071527;28;20048;-55
2021/06/17 00:31:23;;;;;;;12.75;5.47;;;;;;;;;;5071566;28;20082;-55
2021/06/17 00:33:49;;;;;;;8.10;5.90;;;;;;;;;;5072428;28;20049;-55
2021/06/17 00:36:15;;;;;;;10.07;5.22;;;;;;;;;;5064927;28;20053;-55
2021/06/17 00:38:41;;;;;;;7.93;5.30;;;;;;;;;;5060035;28;20103;-55
2021/06/17 00:41:08;;;;;;;10.27;6.05;;;;;;;;;;5061227;28;20045;-55
2021/06/17 00:43:34;;;;;;;12.77;6.13;;;;;;;;;;5071381;28;20086;-55
2021/06/17 00:46:00;;;;;;;8.98;5.57;;;;;;;;;;5054169;28;20088;-55
2021/06/17 00:48:27;;;;;;;10.50;5.88;;;;;;;;;;5059660;28;20053;-55
2021/06/17 00:50:55;;;;;;;8.02;5.70;;;;;;;;;;5067286;28;20045;-55
2021/06/17 00:53:24;;;;;;;8.73;5.30;;;;;;;;;;5071248;28;20133;-55
2021/06/17 00:55:50;;;;;;;12.23;6.20;;;;;;;;;;5071391;28;20036;-55
2021/06/17 00:58:16;;;;;;;11.23;5.88;;;;;;;;;;5072357;28;20071;-55
2021/06/17 01:00:43;;;;;;;9.02;5.90;;;;;;;;;;5075831;28;20064;-55
2021/06/17 01:03:09;;;;;;;11.93;6.13;;;;;;;;;;5065310;28;20056;-54
2021/06/17 01:05:36;;;;;;;9.32;6.25;;;;;;;;;;5068446;28;20521;-55
2021/06/17 01:08:03;;;;;;;8.75;5.88;;;;;;;;;;5074883;28;20052;-55
2021/06/17 01:10:32;;;;;;;12.30;5.78;;;;;;;;;;5074910;28;20511;-55
2021/06/17 01:12:59;;;;;;;12.15;6.68;;;;;;;;;;5075195;28;20500;-55
2021/06/17 01:15:26;;;;;;;9.45;5.97;;;;;;;;;;5062976;28;20524;-55
2021/06/17 01:17:56;;;;;;;13.68;5.97;;;;;;;;;;5070611;28;20054;-55
2021/06/17 01:20:26;;;;;;;9.93;6.47;;;;;;;;;;5074433;28;20037;-55
2021/06/17 01:23:06;;;;;;;9.63;6.53;;;;;;;;;;5074747;28;20527;-55
2021/06/17 01:25:51;;;;;;;13.30;6.20;;;;;;;;;;5059697;28;20097;-55
2021/06/17 01:28:17;;;;;;;;;;;;;;;;;;5074863;28;20083;-55
2021/06/17 01:30:47;;;;;;;12.48;6.00;;;;;;;;;;5075260;28;19920;-56
2021/06/17 01:33:15;;;;;;;14.45;6.18;;;;;;;;;;5074643;28;20041;-55
2021/06/17 01:35:43;;;;;;;9.55;6.47;;;;;;;;;;5106667;28;20086;-55
2021/06/17 01:38:12;;;;;;;10.00;6.03;;;;;;;;;;5068022;28;20094;-55
2021/06/17 01:40:38;;;;;;;10.80;6.40;;;;;;;;;;5062733;28;20051;-55
2021/06/17 01:43:06;;;;;;;9.73;6.07;;;;;;;;;;5058403;28;20122;-55
2021/06/17 01:45:32;;;;;;;18.70;6.40;;;;;;;;;;5074697;28;20066;-55
2021/06/17 01:47:59;;;;;;;8.98;5.97;;;;;;;;;;5106620;28;20500;-56
2021/06/17 01:50:28;;;;;;;10.15;6.05;;;;;;;;;;5073869;28;20044;-55
2021/06/17 01:52:55;;;;;;;11.80;6.88;;;;;;;;;;5073994;28;20508;-55
2021/06/17 01:55:28;;;;;;;17.20;6.30;;;;;;;;;;5074071;28;20064;-55
2021/06/17 01:57:54;;;;;;;8.45;5.50;;;;;;;;;;5070765;28;20045;-55
2021/06/17 02:00:21;;;;;;;10.98;5.38;;;;;;;;;;5074050;28;20044;-55
2021/06/17 02:02:49;;;;;;;7.35;5.20;;;;;;;;;;5073860;28;20036;-55
2021/06/17 02:05:16;;;;;;;10.88;5.60;;;;;;;;;;5073712;28;20048;-55
2021/06/17 02:07:43;;;;;;;12.25;5.97;;;;;;;;;;5073793;28;20045;-55
2021/06/17 02:10:16;;;;;;;9.45;5.63;;;;;;;;;;5072534;28;20049;-55
2021/06/17 02:12:43;;;;;;;10.98;5.43;;;;;;;;;;5073395;28;20478;-55
2021/06/17 02:15:10;;;;;;;13.10;5.75;;;;;;;;;;5073699;28;20048;-55
2021/06/17 02:17:38;;;;;;;11.40;5.72;;;;;;;;;;5073556;28;20045;-55
2021/06/17 02:20:06;;;;;;;11.57;5.93;;;;;;;;;;5072777;28;20052;-54
2021/06/17 02:22:33;;;;;;;9.93;5.95;;;;;;;;;;5058734;28;20045;-55
2021/06/17 02:24:59;;;;;;;12.25;6.20;;;;;;;;;;5073858;28;20051;-55
2021/06/17 02:27:28;;;;;;;12.50;5.78;;;;;;;;;;5074118;28;20511;-55
2021/06/17 02:29:57;;;;;;;10.45;5.13;;;;;;;;;;5072277;28;20043;-55
2021/06/17 02:32:24;;;;;;;12.85;5.82;;;;;;;;;;5071735;28;20041;-56
2021/06/17 02:34:51;;;;;;;10.43;6.32;;;;;;;;;;5073277;28;20049;-55
2021/06/17 02:37:18;;;;;;;9.40;5.78;;;;;;;;;;5073479;28;20058;-56
2021/06/17 02:39:49;;;;;;;12.10;6.07;;;;;;;;;;5071359;28;20098;-55
2021/06/17 02:42:16;;;;;;;11.23;6.05;;;;;;;;;;5069879;28;20087;-55
2021/06/17 02:44:43;;;;;;;10.57;5.75;;;;;;;;;;5072757;28;20056;-55
2021/06/17 02:47:11;;;;;;;9.95;5.95;;;;;;;;;;5072991;28;20127;-56
2021/06/17 02:49:38;;;;;;;12.73;6.68;;;;;;;;;;5073241;28;20048;-55
2021/06/17 02:52:05;;;;;;;11.48;6.60;;;;;;;;;;5073165;28;20127;-53
2021/06/17 02:54:31;;;;;;;9.77;5.90;;;;;;;;;;5071522;28;20485;-55
2021/06/17 02:57:04;;;;;;;13.52;6.00;;;;;;;;;;5062609;28;20535;-55
2021/06/17 02:59:45;;;;;;;11.73;6.97;;;;;;;;;;5061568;28;20045;-55
2021/06/17 03:02:34;;;;;;;13.63;6.88;;;;;;;;;;5062791;28;20044;-55
2021/06/17 03:05:04;;;;;;;13.07;6.15;;;;;;;;;;5072618;28;20048;-55
2021/06/17 03:07:35;;;;;;;12.43;6.05;;;;;;;;;;5072614;28;20562;-55
2021/06/17 03:10:07;;;;;;;13.18;5.70;;;;;;;;;;5072902;28;20055;-55
2021/06/17 03:12:33;;;;;;;11.68;6.60;;;;;;;;;;5072868;28;20538;-55
2021/06/17 03:15:04;;;;;;;10.95;6.05;;;;;;;;;;5071840;28;20062;-56
2021/06/17 03:17:33;;;;;;;10.45;6.45;;;;;;;;;;5071656;28;20450;-56
2021/06/17 03:20:02;;;;;;;16.25;7.85;;;;;;;;;;5072190;28;20112;-55
2021/06/17 03:22:28;;;;;;;15.02;7.00;;;;;;;;;;5071653;28;20036;-55
2021/06/17 03:24:57;;;;;;;9.65;5.80;;;;;;;;;;5072612;28;20079;-55
2021/06/17 03:27:25;;;;;;;10.88;6.53;;;;;;;;;;5086704;28;20068;-55
2021/06/17 03:29:51;;;;;;;9.68;5.95;;;;;;;;;;5071609;28;20047;-55
2021/06/17 03:32:19;;;;;;;10.00;6.40;;;;;;;;;;5067820;28;20118;-55
2021/06/17 03:34:47;;;;;;;12.27;6.88;;;;;;;;;;5071497;28;20060;-55
2021/06/17 03:37:14;;;;;;;10.20;6.05;;;;;;;;;;5056129;28;20045;-54
2021/06/17 03:39:42;;;;;;;19.75;7.07;;;;;;;;;;5058786;28;20053;-55
2021/06/17 03:42:10;;;;;;;10.60;6.13;;;;;;;;;;5070117;28;20051;-55
2021/06/17 03:44:37;;;;;;;13.63;6.35;;;;;;;;;;5069119;28;20059;-55
2021/06/17 03:47:04;;;;;;;11.82;6.55;;;;;;;;;;5070059;28;20052;-55
2021/06/17 03:49:31;;;;;;;11.40;6.30;;;;;;;;;;5071958;28;20085;-55
2021/06/17 03:51:58;;;;;;;10.63;6.50;;;;;;;;;;5072531;28;20040;-55
2021/06/17 03:54:27;;;;;;;13.45;6.18;;;;;;;;;;5060090;28;20052;-55
2021/06/17 03:57:12;;;;;;;12.18;5.93;;;;;;;;;;5066571;28;20140;-55
2021/06/17 03:59:38;;;;;;;;;;;;;;;;;;5066587;28;20056;-55
2021/06/17 04:02:05;;;;;;;14.57;5.15;;;;;;;;;;5061037;28;19920;-55
2021/06/17 04:04:31;;;;;;;18.02;6.22;;;;;;;;;;5071995;28;20044;-55
2021/06/17 04:06:59;;;;;;;11.82;6.10;;;;;;;;;;5072156;28;20076;-55
2021/06/17 04:09:28;;;;;;;10.65;5.50;;;;;;;;;;5059904;28;20049;-55
2021/06/17 04:12:02;;;;;;;15.48;5.22;;;;;;;;;;5066890;28;20114;-55
2021/06/17 04:14:29;;;;;;;12.13;5.80;;;;;;;;;;5065748;28;20073;-56
2021/06/17 04:16:56;;;;;;;8.98;4.90;;;;;;;;;;5063963;28;20056;-55
2021/06/17 04:19:25;;;;;;;8.80;5.40;;;;;;;;;;5065317;28;20049;-56
2021/06/17 04:21:52;;;;;;;8.88;5.15;;;;;;;;;;5066536;28;20424;-55
2021/06/17 04:24:20;;;;;;;10.27;5.25;;;;;;;;;;5069989;28;20044;-55
2021/06/17 04:26:47;;;;;;;12.55;4.95;;;;;;;;;;5060640;28;20171;-56
2021/06/17 04:29:15;;;;;;;12.25;4.80;;;;;;;;;;5062527;28;20090;-55
2021/06/17 04:31:43;;;;;;;8.35;4.75;;;;;;;;;;5067478;28;20077;-55
2021/06/17 04:34:09;;;;;;;7.57;4.15;;;;;;;;;;5072957;28;20510;-56
2021/06/17 04:36:37;;;;;;;9.45;4.97;;;;;;;;;;5070699;28;20067;-56
2021/06/17 04:39:03;;;;;;;9.48;4.25;;;;;;;;;;5071262;28;20074;-56
2021/06/17 04:41:30;;;;;;;7.68;4.53;;;;;;;;;;5071812;28;20087;-56
2021/06/17 04:44:00;;;;;;;12.23;4.82;;;;;;;;;;5072346;28;20582;-55
2021/06/17 04:46:28;;;;;;;6.70;4.32;;;;;;;;;;5066595;28;20715;-56
2021/06/17 04:48:55;;;;;;;7.63;3.55;;;;;;;;;;5071012;28;20097;-56
2021/06/17 04:51:22;;;;;;;10.20;3.92;;;;;;;;;;5069219;28;20068;-56
2021/06/17 04:53:50;;;;;;;8.32;4.32;;;;;;;;;;5068340;28;20547;-55
2021/06/17 04:56:17;;;;;;;9.80;4.38;;;;;;;;;;5070225;28;20040;-56
2021/06/17 04:58:43;;;;;;;6.00;4.00;;;;;;;;;;5072408;28;20052;-55
2021/06/17 05:01:09;;;;;;;10.68;4.30;;;;;;;;;;5073056;28;20582;-56
2021/06/17 05:03:37;;;;;;;8.35;4.15;;;;;;;;;;5068553;28;20094;-55
2021/06/17 05:06:04;;;;;;;6.88;4.38;;;;;;;;;;5068368;28;20165;-55
2021/06/17 05:11:16;;;;;;;14.45;4.13;;;;;;;;;;5062503;28;20117;-56
2021/06/17 05:13:43;;;;;;;10.70;3.83;;;;;;;;;;5066506;28;20481;-55
2021/06/17 05:16:09;;;;;;;6.95;3.33;;;;;;;;;;5069908;28;20052;-56
2021/06/17 05:18:36;;;;;;;10.35;3.88;;;;;;;;;;5072721;28;20079;-56
2021/06/17 05:21:02;;;;;;;5.50;3.60;;;;;;;;;;5063971;28;20045;-54
2021/06/17 05:23:29;;;;;;;5.85;3.10;;;;;;;;;;5062182;28;20044;-55
2021/06/17 05:25:56;;;;;;;6.00;3.05;;;;;;;;;;5063244;28;20079;-55
2021/06/17 05:28:24;;;;;;;5.43;2.55;;;;;;;;;;5069879;28;20059;-56
2021/06/17 05:30:51;;;;;;;4.38;2.92;;;;;;;;;;5070395;28;20128;-56
2021/06/17 05:33:18;;;;;;;11.93;3.42;;;;;;;;;;5071620;28;20048;-56
2021/06/17 05:35:46;;;;;;;6.68;2.78;;;;;;;;;;5066912;28;20048;-56
2021/06/17 05:38:12;;;;;;;6.65;2.47;;;;;;;;;;5063845;28;20071;-56
2021/06/17 05:40:39;;;;;;;6.13;2.78;;;;;;;;;;5073695;28;20446;-56
2021/06/17 05:43:05;;;;;;;19.08;3.03;;;;;;;;;;5074009;28;20569;-56
2021/06/17 05:45:31;;;;;;;6.85;3.28;;;;;;;;;;5061109;28;20098;-56
2021/06/17 05:47:58;;;;;;;6.95;2.42;;;;;;;;;;5065688;28;20141;-56
2021/06/17 05:50:24;;;;;;;7.03;2.55;;;;;;;;;;5066945;28;20482;-55
2021/06/17 05:52:50;;;;;;;4.10;2.55;;;;;;;;;;5069481;28;20119;-56
2021/06/17 05:55:17;;;;;;;4.35;2.40;;;;;;;;;;5073409;28;20061;-55
2021/06/17 05:57:43;;;;;;;5.25;2.65;;;;;;;;;;5074699;28;20049;-56
2021/06/17 06:00:10;;;;;;;4.03;2.42;;;;;;;;;;5071058;28;20044;-56
2021/06/17 06:02:37;;;;;;;6.22;2.17;;;;;;;;;;5069580;28;20060;-55
2021/06/17 06:05:04;;;;;;;8.88;2.33;;;;;;;;;;5069920;28;20040;-55
2021/06/17 06:07:31;;;;;;;5.30;2.20;;;;;;;;;;5068579;28;20488;-56
2021/06/17 06:09:57;;;;;;;6.13;2.20;;;;;;;;;;5072942;28;20044;-56
2021/06/17 06:12:23;;;;;;;14.23;2.22;;;;;;;;;;5070260;28;20044;-56
2021/06/17 06:14:50;;;;;;;7.88;2.58;;;;;;;;;;5068788;28;20036;-56
2021/06/17 06:17:16;;;;;;;7.82;2.13;;;;;;;;;;5068560;28;20487;-56
2021/06/17 06:19:42;;;;;;;6.00;2.63;;;;;;;;;;5068791;28;20097;-56
2021/06/17 06:22:09;;;;;;;3.92;2.60;;;;;;;;;;5070227;28;20066;-56
2021/06/17 06:24:36;;;;;;;6.30;2.33;;;;;;;;;;5070775;28;20070;-56
2021/06/17 06:27:04;;;;;;;6.90;2.60;;;;;;;;;;5069497;28;20122;-56
2021/06/17 06:29:30;;;;;;;4.35;2.35;;;;;;;;;;5069842;28;20044;-56
2021/06/17 06:31:57;;;;;;;4.72;3.17;;;;;;;;;;5069507;28;20060;-56
2021/06/17 06:34:23;;;;;;;5.35;2.35;;;;;;;;;;5069815;28;20142;-56
2021/06/17 06:36:50;;;;;;;4.40;2.28;;;;;;;;;;5072759;28;20040;-56
2021/06/17 06:39:17;;;;;;;5.13;2.53;;;;;;;;;;5068093;28;20052;-56
2021/06/17 06:41:43;;;;;;;5.70;2.45;;;;;;;;;;5066375;28;20836;-56
2021/06/17 06:44:10;;;;;;;4.07;2.25;;;;;;;;;;5069648;28;20041;-56
2021/06/17 06:46:38;;;;;;;5.68;2.60;;;;;;;;;;5065283;28;20088;-56
2021/06/17 06:49:04;;;;;;;2.95;1.98;;;;;;;;;;5062021;28;20475;-56
2021/06/17 06:51:31;;;;;;;7.78;2.65;;;;;;;;;;5068701;28;20135;-56
2021/06/17 06:53:58;;;;;;;3.33;2.10;;;;;;;;;;5068533;28;20091;-56
2021/06/17 06:56:24;;;;;;;5.53;2.10;;;;;;;;;;5067002;28;20036;-56
2021/06/17 06:58:50;;;;;;;6.75;2.05;;;;;;;;;;5067278;28;20040;-56
2021/06/17 07:01:17;;;;;;;5.60;2.30;;;;;;;;;;5069014;28;20102;-56
2021/06/17 07:03:45;;;;;;;15.30;3.30;;;;;;;;;;5070141;28;20049;-56
2021/06/17 07:06:11;;;;;;;6.18;2.10;;;;;;;;;;5065143;28;20115;-56
2021/06/17 07:08:38;;;;;;;7.97;2.25;;;;;;;;;;5066544;28;20044;-56
2021/06/17 07:11:04;;;;;;;4.70;2.75;;;;;;;;;;5068019;28;20075;-56
2021/06/17 07:13:30;;;;;;;14.48;3.00;;;;;;;;;;5068441;28;20112;-55
2021/06/17 07:15:57;;;;;;;7.43;2.35;;;;;;;;;;5070577;28;20053;-55
2021/06/17 07:18:23;;;;;;;12.85;2.72;;;;;;;;;;5070105;28;20066;-55
2021/06/17 07:20:49;;;;;;;4.95;2.30;;;;;;;;;;5068335;28;20045;-55
2021/06/17 07:23:16;;;;;;;7.35;2.53;;;;;;;;;;5068266;28;20267;-55
2021/06/17 07:25:42;;;;;;;9.80;3.63;;;;;;;;;;5071524;28;20063;-56
2021/06/17 07:28:09;;;;;;;4.53;1.88;;;;;;;;;;5071635;28;20056;-55
2021/06/17 07:30:35;;;;;;;5.63;2.17;;;;;;;;;;5072007;28;20052;-55
2021/06/17 07:33:02;;;;;;;5.45;2.20;;;;;;;;;;5066745;28;20491;-56
2021/06/17 07:35:28;;;;;;;8.68;2.20;;;;;;;;;;5066133;28;20099;-56
2021/06/17 07:37:55;;;;;;;4.35;2.20;;;;;;;;;;5066843;28;20129;-56
2021/06/17 07:40:21;;;;;;;4.97;2.20;;;;;;;;;;5055370;28;20053;-56
2021/06/17 07:42:48;;;;;;;7.85;2.80;;;;;;;;;;5057922;28;20492;-56
2021/06/17 07:45:14;;;;;;;4.88;2.60;;;;;;;;;;5069823;28;20515;-56
2021/06/17 07:47:41;;;;;;;8.63;2.38;;;;;;;;;;5071562;28;20040;-56
2021/06/17 07:50:09;;;;;;;3.53;2.20;;;;;;;;;;5064236;28;20051;-56
2021/06/17 07:52:35;;;;;;;6.05;2.53;;;;;;;;;;5067629;28;20052;-56
2021/06/17 07:55:02;;;;;;;3.88;2.42;;;;;;;;;;5067405;28;20052;-56
2021/06/17 07:57:28;;;;;;;7.28;2.72;;;;;;;;;;5068567;28;20051;-56
2021/06/17 07:59:54;;;;;;;6.60;2.50;;;;;;;;;;5065561;28;21282;-56
2021/06/17 08:02:21;;;;;;;4.25;2.28;;;;;;;;;;5061461;28;20129;-56
2021/06/17 08:04:47;;;;;;;5.90;2.60;;;;;;;;;;5064321;28;20488;-55
2021/06/17 08:07:14;;;;;;;6.05;2.50;;;;;;;;;;5069099;28;20068;-56
2021/06/17 08:09:40;;;;;;;3.85;2.75;;;;;;;;;;5071070;28;20148;-56
2021/06/17 08:12:07;;;;;;;3.88;2.67;;;;;;;;;;5066923;28;20129;-56
2021/06/17 08:14:33;;;;;;;5.43;2.75;;;;;;;;;;5064017;28;20553;-56
2021/06/17 08:16:59;;;;;;;4.00;2.58;;;;;;;;;;5069495;28;20083;-56
2021/06/17 08:19:30;;;;;;;5.95;2.78;;;;;;;;;;5067986;28;20074;-56
2021/06/17 08:21:57;;;;;;;8.15;2.80;;;;;;;;;;5071870;28;20055;-56
2021/06/17 08:24:24;;;;;;;4.68;2.88;;;;;;;;;;5085151;28;20052;-57
2021/06/17 08:26:51;;;;;;;5.70;2.70;;;;;;;;;;5068088;28;20043;-56
2021/06/17 08:29:17;;;;;;;5.05;2.58;;;;;;;;;;5068043;28;20044;-56
2021/06/17 08:31:43;;;;;;;7.22;3.00;;;;;;;;;;5070852;28;20044;-56
2021/06/17 08:34:13;;;;;;;5.70;2.60;;;;;;;;;;5070958;28;20049;-56
2021/06/17 08:36:40;;;;;;;11.80;2.90;;;;;;;;;;5066265;28;20495;-56
2021/06/17 08:39:06;;;;;;;4.63;2.55;;;;;;;;;;5070220;28;20083;-56
2021/06/17 08:41:32;;;;;;;4.88;2.42;;;;;;;;;;5069461;28;20510;-57
2021/06/17 08:43:59;;;;;;;4.28;2.90;;;;;;;;;;5070378;28;20087;-56
2021/06/17 08:46:26;;;;;;;5.70;2.85;;;;;;;;;;5053684;28;20512;-56
2021/06/17 08:48:52;;;;;;;7.68;2.90;;;;;;;;;;5071564;28;20094;-56
2021/06/17 08:51:19;;;;;;;4.53;2.45;;;;;;;;;;5065556;28;20098;-56
2021/06/17 08:53:48;;;;;;;4.28;2.65;;;;;;;;;;5068832;28;20063;-56
2021/06/17 08:56:14;;;;;;;5.05;2.53;;;;;;;;;;5069092;28;20048;-56
2021/06/17 08:58:41;;;;;;;3.88;2.58;;;;;;;;;;5067801;28;20059;-56
2021/06/17 09:01:11;;;;;;;4.70;2.80;;;;;;;;;;5065220;28;20044;-56
2021/06/17 09:03:45;;;;;;;4.40;2.70;;;;;;;;;;5064933;28;20075;-56
2021/06/17 09:06:11;;;;;;;3.97;2.58;;;;;;;;;;5067226;28;20052;-56
2021/06/17 09:08:38;;;;;;;5.22;2.63;;;;;;;;;;5070535;28;20049;-56
2021/06/17 09:11:05;;;;;;;4.85;2.55;;;;;;;;;;5070758;28;20555;-56
2021/06/17 09:13:35;;;;;;;6.03;2.72;;;;;;;;;;5070833;28;20094;-56
2021/06/17 09:16:02;;;;;;;3.92;2.38;;;;;;;;;;5071310;28;20044;-57
2021/06/17 09:18:29;;;;;;;4.80;2.65;;;;;;;;;;5103526;28;20502;-56
2021/06/17 09:21:03;;;;;;;3.53;2.38;;;;;;;;;;5075963;28;20040;-56
2021/06/17 09:23:31;;;;;;;7.60;2.95;;;;;;;;;;5074398;28;20040;-54
2021/06/17 09:26:01;;;;;;;4.30;2.60;;;;;;;;;;5074688;28;20049;-56
2021/06/17 09:28:28;;;;;;;6.43;2.72;;;;;;;;;;5058734;28;20076;-56
2021/06/17 09:30:55;;;;;;;5.97;2.70;;;;;;;;;;5069788;28;20036;-56
2021/06/17 09:33:25;;;;;;;4.45;2.40;;;;;;;;;;5073448;28;20064;-56
2021/06/17 09:35:56;;;;;;;5.05;2.80;;;;;;;;;;5067943;28;20148;-56
2021/06/17 09:38:24;;;;;;;3.28;2.10;;;;;;;;;;5073438;28;20083;-56
2021/06/17 09:40:51;;;;;;;3.55;2.40;;;;;;;;;;5060873;28;20090;-57
2021/06/17 09:43:28;;;;;;;5.20;2.28;;;;;;;;;;5068912;28;20661;-56
2021/06/17 09:45:57;;;;;;;4.93;2.20;;;;;;;;;;5060863;28;20535;-57
2021/06/17 09:48:38;;;;;;;6.22;2.38;;;;;;;;;;5062992;28;20045;-57
2021/06/17 09:51:24;;;;;;;3.65;2.10;;;;;;;;;;5065168;28;20064;-57
2021/06/17 09:53:51;;;;;;;3.63;1.90;;;;;;;;;;5062407;28;20044;-57
2021/06/17 09:56:18;;;;;;;3.83;3.05;;;;;;;;;;5064202;28;20076;-57
2021/06/17 09:58:45;;;;;;;5.60;2.20;;;;;;;;;;5073495;28;20044;-57
2021/06/17 10:01:16;;;;;;;4.10;2.92;;;;;;;;;;5074095;28;20052;-57
2021/06/17 10:03:43;;;;;;;4.28;2.30;;;;;;;;;;5058881;28;20084;-57
2021/06/17 10:06:19;;;;;;;7.50;2.40;;;;;;;;;;5104043;28;20044;-57
2021/06/17 10:08:46;;;;;;;4.35;2.10;;;;;;;;;;5067503;28;20049;-57
2021/06/17 10:11:15;;;;;;;3.35;1.88;;;;;;;;;;5063801;28;20420;-57
2021/06/17 10:13:41;;;;;;;3.85;2.20;;;;;;;;;;5073271;28;20086;-56
2021/06/17 10:16:08;;;;;;;6.35;2.40;;;;;;;;;;5073533;28;20538;-57
2021/06/17 10:18:36;;;;;;;3.30;1.98;;;;;;;;;;5073972;28;20052;-57
2021/06/17 10:21:02;;;;;;;4.68;1.95;;;;;;;;;;5073374;28;20048;-57
2021/06/17 10:23:29;;;;;;;4.57;2.13;;;;;;;;;;5073152;28;20044;-57
2021/06/17 10:25:55;;;;;;;4.03;2.30;;;;;;;;;;5073532;28;20040;-57
2021/06/17 10:28:40;;;;;;;2.85;2.17;;;;;;;;;;5073320;28;20040;-57
2021/06/17 10:31:06;;;;;;;5.78;2.42;;;;;;;;;;5067411;28;20079;-57
2021/06/17 10:33:34;;;;;;;3.97;2.30;;;;;;;;;;5073726;28;20051;-57
2021/06/17 10:36:22;;;;;;;5.55;2.25;;;;;;;;;;5072857;28;20074;-56
2021/06/17 10:39:09;;;;;;;2.53;2.05;;;;;;;;;;5072583;28;20053;-57
2021/06/17 10:41:51;;;;;;;5.57;2.42;;;;;;;;;;5067901;28;20044;-57
2021/06/17 10:44:38;;;;;;;3.80;2.13;;;;;;;;;;5063862;28;20067;-57
2021/06/17 10:47:05;;;;;;;7.47;2.45;;;;;;;;;;5069674;28;20044;-57
2021/06/17 10:49:50;;;;;;;4.72;2.22;;;;;;;;;;5063480;28;20517;-57
2021/06/17 10:52:26;;;;;;;4.78;2.20;;;;;;;;;;5067338;28;20051;-57
2021/06/17 10:55:08;;;;;;;3.33;2.20;;;;;;;;;;5072656;28;20484;-57
2021/06/17 10:57:43;;;;;;;4.55;2.20;;;;;;;;;;5072805;28;20045;-57
2021/06/17 11:00:25;;;;;;;4.90;2.38;;;;;;;;;;5072306;28;20474;-57
2021/06/17 11:02:58;;;;;;;6.32;2.55;;;;;;;;;;5072598;28;20044;-57
2021/06/17 11:05:31;;;;;;;6.15;2.63;;;;;;;;;;5072491;28;20621;-57
2021/06/17 11:08:16;;;;;;;3.58;2.40;;;;;;;;;;5072638;28;20044;-57
2021/06/17 11:10:44;;;;;;;5.35;2.10;;;;;;;;;;5066488;28;20416;-57
2021/06/17 11:13:10;;;;;;;4.43;1.92;;;;;;;;;;5062262;28;20558;-57
2021/06/17 11:15:38;;;;;;;3.65;2.58;;;;;;;;;;5059728;28;20102;-57
2021/06/17 11:18:05;;;;;;;3.88;2.13;;;;;;;;;;5069780;28;20112;-57
2021/06/17 11:20:34;;;;;;;3.05;2.10;;;;;;;;;;5072381;28;20048;-57
2021/06/17 11:23:02;;;;;;;2.88;1.92;;;;;;;;;;5072228;28;20047;-57
2021/06/17 11:25:33;;;;;;;6.43;2.30;;;;;;;;;;5056434;28;20751;-58
2021/06/17 11:28:00;;;;;;;3.25;2.10;;;;;;;;;;5068856;28;20510;-57
2021/06/17 11:30:41;;;;;;;4.13;1.98;;;;;;;;;;5072101;28;20077;-57
2021/06/17 11:33:17;;;;;;;3.80;2.03;;;;;;;;;;5072171;28;20044;-58
2021/06/17 11:35:44;;;;;;;4.35;1.70;;;;;;;;;;5071936;28;20508;-57
2021/06/17 11:38:10;;;;;;;4.00;1.92;;;;;;;;;;5070828;28;20083;-57
2021/06/17 11:40:36;;;;;;;3.95;1.60;;;;;;;;;;5069106;28;20055;-58
2021/06/17 11:43:03;;;;;;;4.35;1.90;;;;;;;;;;5070879;28;20048;-57
2021/06/17 11:45:32;;;;;;;2.92;1.70;;;;;;;;;;5072154;28;20083;-58
2021/06/17 11:48:03;;;;;;;3.85;1.70;;;;;;;;;;5071794;28;20048;-57
2021/06/17 11:50:30;;;;;;;4.53;2.28;;;;;;;;;;5071873;28;20500;-58
2021/06/17 11:52:58;;;;;;;3.42;1.67;;;;;;;;;;5070663;28;20423;-58
2021/06/17 11:55:25;;;;;;;5.03;1.90;;;;;;;;;;5071588;28;20072;-57
2021/06/17 11:57:52;;;;;;;2.83;1.52;;;;;;;;;;5072593;28;20419;-58
2021/06/17 12:00:31;;;;;;;3.33;1.70;;;;;;;;;;5071448;28;20062;-58
2021/06/17 12:02:58;;;;;;;5.63;1.70;;;;;;;;;;5071717;28;20458;-57
2021/06/17 12:05:25;;;;;;;5.47;1.90;;;;;;;;;;5068535;28;20084;-57
2021/06/17 12:07:51;;;;;;;4.75;1.73;;;;;;;;;;5059108;28;20044;-57
2021/06/17 12:10:22;;;;;;;4.28;1.70;;;;;;;;;;5071580;28;20535;-57
2021/06/17 12:12:56;;;;;;;3.03;1.55;;;;;;;;;;5072248;28;20044;-58
2021/06/17 12:15:23;;;;;;;;;;;;;;;;;;5071799;28;20040;-57
2021/06/17 12:17:51;;;;;;;5.53;1.67;;;;;;;;;;5071681;28;19943;-58
2021/06/17 12:20:26;;;;;;;3.47;1.60;;;;;;;;;;5071126;28;20099;-57
2021/06/17 12:23:02;;;;;;;2.53;1.30;;;;;;;;;;5070078;28;20067;-57
2021/06/17 12:25:29;;;;;;;3.85;1.60;;;;;;;;;;5057100;28;20048;-58
2021/06/17 12:27:58;;;;;;;5.18;2.28;;;;;;;;;;5052125;28;20051;-58
2021/06/17 12:30:30;;;;;;;3.70;1.40;;;;;;;;;;5060007;28;20045;-57
2021/06/17 12:33:02;;;;;;;5.83;1.80;;;;;;;;;;5067502;28;20052;-58
2021/06/17 12:35:36;;;;;;;5.22;1.55;;;;;;;;;;5071170;28;20064;-58
2021/06/17 12:38:02;;;;;;;;;;;;;;;;;;5071969;28;20084;-57
2021/06/17 12:40:33;;;;;;;2.67;1.20;;;;;;;;;;5071733;28;19956;-58
2021/06/17 12:43:11;;;;;;;7.07;1.52;;;;;;;;;;5067589;28;20048;-58
2021/06/17 12:45:39;;;;;;;4.32;1.70;;;;;;;;;;5071542;28;20080;-58
2021/06/17 12:53:26;;;;;;;3.47;1.20;;;;;;;;;;5071053;28;20060;-57
2021/06/17 12:55:55;;;;;;;4.80;1.40;;;;;;;;;;5074861;28;20094;-58
2021/06/17 12:58:23;;;;;;;7.05;1.50;;;;;;;;;;5073780;28;20037;-58
2021/06/17 13:00:59;;;;;;;6.05;1.50;;;;;;;;;;5091120;28;20514;-57
2021/06/17 13:03:25;;;;;;;7.57;1.50;;;;;;;;;;5075014;28;20049;-57
2021/06/17 13:05:52;;;;;;;3.47;2.08;;;;;;;;;;5074993;28;20032;-58
2021/06/17 13:08:21;;;;;;;2.13;1.20;;;;;;;;;;5074921;28;20041;-58
2021/06/17 13:10:50;;;;;;;2.92;1.33;;;;;;;;;;5074733;28;20052;-58
2021/06/17 13:13:24;;;;;;;2.20;1.50;;;;;;;;;;5074874;28;20048;-58
2021/06/17 13:15:54;;;;;;;3.67;1.67;;;;;;;;;;5073452;28;20482;-57
2021/06/17 13:18:20;;;;;;;3.80;1.60;;;;;;;;;;5070798;28;20052;-57
2021/06/17 13:20:48;;;;;;;4.22;1.50;;;;;;;;;;5072025;28;20124;-58
2021/06/17 13:23:21;;;;;;;2.65;1.25;;;;;;;;;;5066652;28;20077;-57
2021/06/17 13:25:57;;;;;;;3.42;1.30;;;;;;;;;;5107146;28;20041;-58
2021/06/17 13:28:26;;;;;;;2.83;1.30;;;;;;;;;;5074640;28;20041;-57
2021/06/17 13:30:53;;;;;;;10.13;1.60;;;;;;;;;;5075270;28;20048;-58
2021/06/17 13:33:19;;;;;;;3.35;1.50;;;;;;;;;;5073186;28;20049;-57
2021/06/17 13:35:46;;;;;;;5.70;1.15;;;;;;;;;;5074471;28;20084;-58
2021/06/17 13:38:18;;;;;;;2.22;1.30;;;;;;;;;;5073149;28;20423;-58
2021/06/17 13:40:45;;;;;;;5.10;1.30;;;;;;;;;;5074465;28;20048;-57
2021/06/17 13:43:13;;;;;;;2.45;1.20;;;;;;;;;;5074410;28;20040;-58
2021/06/17 13:45:40;;;;;;;2.13;1.25;;;;;;;;;;5059332;28;20106;-58
2021/06/17 13:48:07;;;;;;;3.70;1.20;;;;;;;;;;5071622;28;20044;-58
2021/06/17 13:50:33;;;;;;;2.53;1.17;;;;;;;;;;5073071;28;20087;-58
2021/06/17 13:53:00;;;;;;;2.53;1.38;;;;;;;;;;5074196;28;20079;-57
2021/06/17 13:55:27;;;;;;;5.22;1.60;;;;;;;;;;5073739;28;20048;-57
2021/06/17 13:57:55;;;;;;;2.28;1.50;;;;;;;;;;5074869;28;20052;-58
2021/06/17 14:00:22;;;;;;;3.40;1.35;;;;;;;;;;5073845;28;20044;-58
2021/06/17 14:02:49;;;;;;;8.32;1.42;;;;;;;;;;5067672;28;20407;-57
2021/06/17 14:05:16;;;;;;;4.97;1.55;;;;;;;;;;5062842;28;20037;-58
2021/06/17 14:07:43;;;;;;;3.42;1.23;;;;;;;;;;5073305;28;20131;-58
2021/06/17 14:10:12;;;;;;;3.22;1.30;;;;;;;;;;5073830;28;20032;-58
2021/06/17 14:12:39;;;;;;;2.92;1.08;;;;;;;;;;5074569;28;20048;-58
2021/06/17 14:15:07;;;;;;;2.72;1.25;;;;;;;;;;5065583;28;20053;-58
2021/06/17 14:17:33;;;;;;;1.60;0.98;;;;;;;;;;5061226;28;20045;-57
2021/06/17 14:20:00;;;;;;;2.22;1.13;;;;;;;;;;5062061;28;20512;-58
2021/06/17 14:22:27;;;;;;;11.52;1.30;;;;;;;;;;5070736;28;20462;-57
2021/06/17 14:24:56;;;;;;;8.60;1.10;;;;;;;;;;5063790;28;20099;-57
2021/06/17 14:27:23;;;;;;;1.95;1.30;;;;;;;;;;5066169;28;20048;-57
2021/06/17 14:29:49;;;;;;;1.80;1.10;;;;;;;;;;5071567;28;20484;-57
2021/06/17 14:32:16;;;;;;;3.67;1.50;;;;;;;;;;5069960;28;20048;-57
2021/06/17 14:34:43;;;;;;;10.13;1.60;;;;;;;;;;5069554;28;20408;-56
2021/06/17 14:37:09;;;;;;;4.22;1.63;;;;;;;;;;5071624;28;20127;-57
2021/06/17 14:39:36;;;;;;;3.85;1.58;;;;;;;;;;5070152;28;20044;-56
2021/06/17 14:42:03;;;;;;;4.35;1.70;;;;;;;;;;5069319;28;20504;-56
2021/06/17 14:44:29;;;;;;;2.30;1.40;;;;;;;;;;5069939;28;20063;-57
2021/06/17 14:46:56;;;;;;;3.60;1.33;;;;;;;;;;5070237;28;20049;-56
2021/06/17 14:49:22;;;;;;;3.05;1.80;;;;;;;;;;5070203;28;20214;-57
2021/06/17 14:51:48;;;;;;;3.85;1.27;;;;;;;;;;5065971;28;20447;-55
2021/06/17 14:54:20;;;;;;;6.47;1.60;;;;;;;;;;5068736;28;20040;-56
2021/06/17 14:56:47;;;;;;;3.60;1.70;;;;;;;;;;5070214;28;20040;-55